• Join FlightAware (Why Join?)
  • Login
  • US Flag 
12:11PM EDT


 

Airport Tracker/Info


-or-


 

Live Flight TrackerFlight Track Log ✈ VH-YNQ ✈ 12-Aug-2013 ✈ YPPF / PAL - YPPF / PAL

Flight Track Log - Related Links

Times and Time Zones

All times are in EDT time to prevent confusion due to time zone crossing. See the VH-YNQ flight status page for this flight to view local times or setup timezone preferences in your user account.

Time Position Orientation Groundspeed Altitude Reporting Facility
EDT Latitude Longitude Course Direction KTS MPH feet Rate Location/Type
09:25PM -34.7935 138.6157 277° West 71 82 500  Level Aus ATC (RADAR)
09:26PM -34.7914 138.5954 277° West 92 106 700  Climbing Aus ATC (RADAR)
09:27PM -34.7780 138.5548 292° West 97 112 500 -120 Descending Aus ATC (RADAR)
09:28PM -34.7652 138.5428 322° Northwest 100 115 500 60 Level Aus ATC (RADAR)
09:29PM -34.7533 138.5349 331° Northwest 98 113 600 360 Climbing Aus ATC (RADAR)
09:29PM -34.7370 138.5227 328° Northwest 92 106 1,000 660 Climbing Aus ATC (RADAR)
09:31PM -34.7086 138.5064 335° Northwest 87 100 2,000 720 Climbing Aus ATC (RADAR)
09:31PM -34.6892 138.4979 340° North 90 104 2,600 180 Climbing Aus ATC (RADAR)
09:33PM -34.6508 138.4822 341° North 110 127 2,500 -60 Descending Aus ATC (RADAR)
09:34PM -34.6235 138.4679 337° Northwest 107 123 2,500  Level Aus ATC (RADAR)
09:35PM -34.6123 138.4510 309° West 99 114 2,500 240 Level Aus ATC (RADAR)
09:36PM -34.6111 138.4714 86° East 108 124 3,100 120 Climbing Aus ATC (RADAR)
09:38PM -34.5601 138.4814 North 116 133 3,000 -60 Descending Aus ATC (RADAR)
09:38PM -34.5384 138.4861 10° North 119 137 3,000  Level Aus ATC (RADAR)
09:39PM -34.5095 138.4923 10° North 114 131 3,000  Level Aus ATC (RADAR)
09:40PM -34.4841 138.4984 11° North 113 130 3,000  Level Aus ATC (RADAR)
09:40PM -34.4686 138.5026 13° North 114 131 3,000  Level Aus ATC (RADAR)
09:41PM -34.4395 138.5106 13° North 119 137 3,000  Level Aus ATC (RADAR)
09:43PM -34.3806 138.5239 11° North 120 138 3,000  Level Aus ATC (RADAR)
09:44PM -34.3499 138.5294 North 110 127 3,000  Level Aus ATC (RADAR)
09:45PM -34.3262 138.5368 14° North 116 133 3,000 -120 Level Aus ATC (RADAR)
09:46PM -34.3074 138.5430 15° North 121 139 2,900 -180 Descending Aus ATC (RADAR)
09:49PM -34.2127 138.5323 352° North 3,500 120 Climbing Aus ATC (Calculated)
09:51PM -34.1935 138.5290 352° North  Level FlightAware Approximate
09:52PM -34.1776 138.5263 352° North  Level FlightAware Approximate
09:52PM -34.0900 138.5114 172° South 3,500  Level Aus ATC (Calculated)
09:53PM -34.1618 138.5236 352° North  Level FlightAware Approximate
09:54PM -34.0605 138.5064 352° North  Level FlightAware Approximate
09:55PM -34.0447 138.5037 352° North  Level FlightAware Approximate
09:56PM -34.0288 138.5011 352° North  Level FlightAware Approximate
09:56PM -33.9838 138.4463 124° Southeast 4,500  Level Aus ATC (Calculated)
09:57PM -34.0130 138.4984 352° North  Level FlightAware Approximate
09:58PM -33.9753 138.4692 66° East  Level FlightAware Approximate
09:59PM -33.9688 138.4868 66° East  Level FlightAware Approximate
10:00PM -33.9623 138.5044 66° East  Level FlightAware Approximate
10:01PM -33.9688 138.4868 246° West  Level FlightAware Approximate
10:02PM -33.9623 138.5044 66° East  Level FlightAware Approximate
10:03PM -33.9688 138.4868 246° West  Level FlightAware Approximate
10:04PM -33.9623 138.5044 66° East  Level FlightAware Approximate
10:05PM -33.9688 138.4868 246° West  Level FlightAware Approximate
10:06PM -33.9623 138.5044 66° East  Level FlightAware Approximate
10:07PM -33.9688 138.4868 246° West  Level FlightAware Approximate
10:08PM -33.9623 138.5044 66° East  Level FlightAware Approximate
10:09PM -33.9688 138.4868 246° West  Level FlightAware Approximate
10:10PM -33.9675 138.4863 268° West  Level FlightAware Approximate
10:11PM -33.9682 138.4670 268° West  Level FlightAware Approximate
10:12PM -33.9689 138.4478 268° West  Level FlightAware Approximate
10:13PM -33.9696 138.4285 268° West  Level FlightAware Approximate
10:14PM -33.9702 138.4092 268° West  Level FlightAware Approximate
10:15PM -33.9709 138.3900 268° West  Level FlightAware Approximate
10:16PM -33.9716 138.3707 268° West  Level FlightAware Approximate
10:17PM -33.9722 138.3515 268° West  Level FlightAware Approximate
10:18PM -33.9729 138.3322 268° West  Level FlightAware Approximate
10:19PM -33.9735 138.3129 268° West  Level FlightAware Approximate
10:20PM -33.9742 138.2937 268° West  Level FlightAware Approximate
10:21PM -33.9749 138.2744 268° West  Level FlightAware Approximate
10:22PM -33.9755 138.2552 268° West  Level FlightAware Approximate
10:23PM -33.9762 138.2359 268° West  Level FlightAware Approximate
10:24PM -33.9768 138.2166 268° West  Level FlightAware Approximate
10:25PM -33.9774 138.1974 268° West  Level FlightAware Approximate
10:26PM -33.9781 138.1781 268° West  Level FlightAware Approximate
10:27PM -33.9787 138.1588 268° West  Level FlightAware Approximate
10:28PM -33.9793 138.1396 268° West  Level FlightAware Approximate
10:28PM -33.2389 137.9949 177° South 4,500  Level Aus ATC (Calculated)
10:30PM -33.2672 137.9965 177° South  Level FlightAware Approximate
10:31PM -33.2831 137.9975 177° South  Level FlightAware Approximate
10:32PM -33.2991 137.9984 177° South  Level FlightAware Approximate
10:33PM -33.3151 137.9993 177° South  Level FlightAware Approximate
10:34PM -33.3301 138.0056 151° Southeast  Level Estimated
10:35PM -33.3456 138.0103 166° South  Level FlightAware Approximate
10:36PM -33.3611 138.0150 166° South  Level FlightAware Approximate
10:37PM -33.3766 138.0197 166° South  Level FlightAware Approximate
10:38PM -33.3921 138.0244 166° South  Level FlightAware Approximate
10:39PM -33.4076 138.0291 166° South  Level FlightAware Approximate
10:40PM -33.4231 138.0338 166° South  Level FlightAware Approximate
10:41PM -33.4386 138.0385 166° South  Level FlightAware Approximate
10:42PM -33.4541 138.0432 166° South  Level FlightAware Approximate
10:43PM -33.4696 138.0479 166° South  Level FlightAware Approximate
10:44PM -33.4851 138.0526 166° South  Level FlightAware Approximate
10:45PM -33.5006 138.0573 166° South  Level FlightAware Approximate
10:46PM -33.5161 138.0620 166° South  Level FlightAware Approximate
10:47PM -33.5316 138.0667 166° South  Level FlightAware Approximate
10:48PM -33.5471 138.0714 166° South  Level FlightAware Approximate
10:49PM -33.5626 138.0761 166° South  Level FlightAware Approximate
10:50PM -33.5781 138.0808 166° South  Level FlightAware Approximate
10:51PM -33.5936 138.0855 166° South  Level FlightAware Approximate
10:52PM -33.6091 138.0902 166° South  Level FlightAware Approximate
10:53PM -33.6246 138.0950 166° South  Level FlightAware Approximate
10:54PM -33.6401 138.0997 166° South  Level FlightAware Approximate
10:55PM -33.6556 138.1044 166° South  Level FlightAware Approximate
10:56PM -33.6711 138.1091 166° South  Level FlightAware Approximate
10:57PM -33.6866 138.1138 166° South  Level FlightAware Approximate
10:58PM -33.7021 138.1186 166° South  Level FlightAware Approximate
10:58PM -33.7967 138.0273 158° South 4,500  Level Aus ATC (Calculated)
11:00PM -33.8197 138.0385 158° South  Level FlightAware Approximate
11:01PM -33.8345 138.0457 158° South  Level FlightAware Approximate
11:02PM -33.8493 138.0529 158° South  Level FlightAware Approximate
11:02PM -33.7967 138.0273 158° South 4,500  Level Aus ATC (Calculated)
11:04PM -33.8229 138.0401 158° South  Level FlightAware Approximate
11:05PM -33.8377 138.0473 158° South  Level FlightAware Approximate
11:06PM -33.8525 138.0545 158° South  Level FlightAware Approximate
11:07PM -33.8674 138.0617 158° South  Level FlightAware Approximate
11:08PM -33.8816 138.0704 177° South  Level Estimated
11:09PM -33.8968 138.0766 161° South  Level FlightAware Approximate
11:10PM -33.9119 138.0827 161° South  Level FlightAware Approximate
11:11PM -33.9270 138.0889 161° South  Level FlightAware Approximate
11:12PM -33.9422 138.0951 161° South  Level FlightAware Approximate
11:12PM -33.9826 138.0382 64° Northeast 4,500  Level Aus ATC (Calculated)
11:13PM -33.9573 138.1012 161° South  Level FlightAware Approximate
11:14PM -33.9997 138.0473 156° South  Level FlightAware Approximate
11:15PM -34.0143 138.0550 156° South  Level FlightAware Approximate
11:16PM -34.0280 138.0650 152° Southeast  Level Estimated
11:17PM -34.0425 138.0731 155° Southeast  Level FlightAware Approximate
11:18PM -34.0570 138.0811 155° Southeast  Level FlightAware Approximate
11:19PM -34.0715 138.0892 155° Southeast  Level FlightAware Approximate
11:20PM -34.0861 138.0973 155° Southeast  Level FlightAware Approximate
11:21PM -34.1006 138.1053 155° Southeast  Level FlightAware Approximate
11:22PM -34.1151 138.1134 155° Southeast  Level FlightAware Approximate
11:23PM -34.1296 138.1215 155° Southeast  Level FlightAware Approximate
11:23PM -34.2774 138.2327 158° South 4,500  Level Aus ATC (Calculated)
11:25PM -34.2984 138.2432 158° South  Level FlightAware Approximate
11:25PM -34.3364 138.2717 360° North 4,500  Level Aus ATC (Calculated)
11:26PM -34.3364 138.2717 158° South 4,500  Level Aus ATC (Calculated)
11:28PM -34.3591 138.2827 158° South  Level FlightAware Approximate
11:29PM -34.3740 138.2898 158° South  Level FlightAware Approximate
11:29PM -34.3953 138.3108 160° South 4,500  Level Aus ATC (Calculated)
11:31PM -34.4242 138.3239 160° South  Level FlightAware Approximate
11:32PM -34.4374 138.3349 99° East  Level Estimated
11:33PM -34.4506 138.3459 146° Southeast  Level FlightAware Approximate
11:33PM -34.5187 138.3542 140° Southeast 2,500  Level Aus ATC (Calculated)
11:35PM -34.5411 138.3767 140° Southeast  Level FlightAware Approximate
11:36PM -34.5533 138.3892 140° Southeast  Level FlightAware Approximate
11:37PM -34.5656 138.4016 140° Southeast  Level FlightAware Approximate
11:38PM -34.5779 138.4140 140° Southeast  Level FlightAware Approximate
11:39PM -34.5902 138.4265 140° Southeast  Level FlightAware Approximate
11:39PM -34.6792 138.4208 123° Southeast 1,500  Level Aus ATC (Calculated)
11:41PM -34.6936 138.4476 99° East  Level Estimated
11:41PM -34.7271 138.4520 152° Southeast 1,500  Level Aus ATC (Calculated)
11:42PM -34.7750 138.4833 North 1,500  Level Aus ATC (Calculated)
11:43PM -34.7400 138.4873 99° East  Level Estimated
11:44PM -34.7777 138.5055 99° East  Level Estimated
11:45PM -34.7801 138.5247 99° East  Level Estimated
11:46PM -34.7824 138.5440 99° East  Level Estimated
11:47PM -34.7848 138.5632 99° East  Level Estimated
11:48PM -34.7872 138.5825 99° East  Level Estimated